Time;durP1;ratioP1;P1;durP2;ratioP2;P2;SDS_P1;SDS_P2;PMS_P1;PMS_P2;Temp;Humidity;BMP_temperature;BMP_pressure;BME280_temperature;BME280_humidity;BME280_pressure;Samples;Min_cycle;Max_cycle;Signal;HPM_P1;HPM_P2
2022/05/01 00:01:00;;;;;;;22.50;11.60;;;6.00;99.90;;;;;;5070344;28;20172;-58
2022/05/01 00:03:33;;;;;;;19.23;11.63;;;5.90;99.90;;;;;;5070971;28;20463;-58
2022/05/01 00:06:05;;;;;;;16.90;11.00;;;5.90;99.90;;;;;;5067614;28;20440;-58
2022/05/01 00:08:32;;;;;;;16.70;12.20;;;5.90;99.90;;;;;;5077033;28;20476;-58
2022/05/01 00:10:58;;;;;;;16.30;11.53;;;5.80;99.90;;;;;;5069721;28;20444;-58
2022/05/01 00:13:24;;;;;;;18.00;11.20;;;5.80;99.90;;;;;;5070225;28;20484;-59
2022/05/01 00:15:50;;;;;;;14.97;10.63;;;5.80;99.90;;;;;;5063529;28;20432;-58
2022/05/01 00:18:16;;;;;;;19.53;12.37;;;5.80;99.90;;;;;;5072828;28;20968;-56
2022/05/01 00:20:43;;;;;;;16.47;11.13;;;5.70;99.90;;;;;;5075284;28;20539;-57
2022/05/01 00:23:08;;;;;;;19.10;11.93;;;5.70;99.90;;;;;;5073716;28;20453;-57
2022/05/01 00:25:35;;;;;;;17.70;11.50;;;5.70;99.90;;;;;;5065921;28;20959;-57
2022/05/01 00:28:01;;;;;;;18.37;11.73;;;5.70;99.90;;;;;;5072236;28;20226;-57
2022/05/01 00:30:26;;;;;;;16.73;10.80;;;5.70;99.90;;;;;;5078471;28;20427;-57
2022/05/01 00:38:21;;;;;;;15.50;11.07;;;5.70;99.90;;;;;;5072593;28;20510;-58
2022/05/01 00:40:48;;;;;;;17.10;11.20;;;5.70;99.90;;;;;;5069666;28;20957;-56
2022/05/01 00:43:13;;;;;;;17.63;11.37;;;5.80;99.90;;;;;;5071743;28;20281;-57
2022/05/01 00:45:39;;;;;;;17.63;12.60;;;5.80;99.90;;;;;;5068562;28;20840;-57
2022/05/01 00:48:05;;;;;;;17.40;11.10;;;5.80;99.90;;;;;;5070568;28;20571;-56
2022/05/01 00:50:32;;;;;;;20.57;12.70;;;5.90;99.90;;;;;;5085134;28;20173;-58
2022/05/01 00:52:58;;;;;;;19.40;11.97;;;5.90;99.90;;;;;;5069273;28;20443;-57
2022/05/01 00:55:24;;;;;;;19.30;11.50;;;5.90;99.90;;;;;;5066620;28;20421;-57
2022/05/01 00:57:50;;;;;;;18.37;11.80;;;5.90;99.90;;;;;;5069123;28;20278;-57
2022/05/01 01:00:18;;;;;;;20.07;10.73;;;5.80;99.90;;;;;;5072803;28;20205;-57
2022/05/01 01:02:47;;;;;;;20.33;11.00;;;5.80;99.90;;;;;;5059061;28;20265;-57
2022/05/01 01:05:13;;;;;;;16.53;10.73;;;5.80;99.90;;;;;;5072765;28;20463;-58
2022/05/01 01:07:39;;;;;;;18.80;11.63;;;5.80;99.90;;;;;;5063376;28;20425;-58
2022/05/01 01:10:05;;;;;;;18.33;11.03;;;5.80;99.90;;;;;;5078243;28;20211;-57
2022/05/01 01:15:15;;;;;;;23.10;11.70;;;5.70;99.90;;;;;;5069579;28;20515;-57
2022/05/01 01:17:43;;;;;;;27.50;12.17;;;5.70;99.90;;;;;;5065505;28;20505;-57
2022/05/01 01:20:12;;;;;;;23.50;11.80;;;5.60;99.90;;;;;;5069728;28;20210;-57
2022/05/01 01:22:39;;;;;;;22.53;12.73;;;5.60;99.90;;;;;;5078384;28;20439;-57
2022/05/01 01:25:09;;;;;;;25.73;14.03;;;5.50;99.90;;;;;;5068663;28;20762;-57
2022/05/01 01:27:35;;;;;;;24.10;14.17;;;5.50;99.90;;;;;;5061678;28;20438;-58
2022/05/01 01:32:48;;;;;;;40.70;15.07;;;5.60;99.90;;;;;;5068598;28;20960;-57
2022/05/01 01:35:15;;;;;;;28.00;14.03;;;5.60;99.90;;;;;;5077425;28;20817;-57
2022/05/01 01:37:46;;;;;;;33.50;15.47;;;5.50;99.90;;;;;;5067574;28;20439;-58
2022/05/01 01:40:22;;;;;;;33.03;16.20;;;5.60;99.90;;;;;;5068569;28;20450;-57
2022/05/01 01:42:54;;;;;;;36.10;16.20;;;5.60;99.90;;;;;;5070651;28;20436;-57
2022/05/01 01:45:20;;;;;;;26.10;15.03;;;5.60;99.90;;;;;;5061388;28;20975;-57
2022/05/01 01:47:49;;;;;;;28.23;15.10;;;5.70;99.90;;;;;;5064069;28;20433;-58
2022/05/01 01:50:17;;;;;;;29.60;15.20;;;5.70;99.90;;;;;;5066095;28;20516;-57
2022/05/01 01:52:46;;;;;;;29.67;14.67;;;5.70;99.90;;;;;;5067128;28;20498;-57
2022/05/01 01:55:14;;;;;;;34.50;15.17;;;5.70;99.90;;;;;;5072188;28;20969;-56
2022/05/01 01:57:40;;;;;;;24.10;13.70;;;5.70;99.90;;;;;;5071891;28;20832;-57
2022/05/01 02:00:07;;;;;;;45.00;16.17;;;5.60;99.90;;;;;;5066020;28;20520;-57
2022/05/01 02:02:32;;;;;;;36.60;16.37;;;5.70;99.90;;;;;;5060879;28;20278;-57
2022/05/01 02:04:58;;;;;;;40.00;16.80;;;5.60;99.90;;;;;;5062734;28;20588;-57
2022/05/01 02:07:24;;;;;;;39.93;16.80;;;5.60;99.90;;;;;;5066034;28;20228;-57
2022/05/01 02:09:49;;;;;;;34.97;16.60;;;5.60;99.90;;;;;;5084443;28;20175;-58
2022/05/01 02:12:15;;;;;;;71.23;17.03;;;5.60;99.90;;;;;;5069707;28;20220;-56
2022/05/01 02:14:41;;;;;;;30.80;15.47;;;5.60;99.90;;;;;;5075014;28;20178;-56
2022/05/01 02:17:07;;;;;;;39.00;16.90;;;5.60;99.90;;;;;;5059924;28;20270;-57
2022/05/01 02:19:33;;;;;;;71.27;16.03;;;5.60;99.90;;;;;;5075228;28;20472;-58
2022/05/01 02:21:58;;;;;;;55.20;16.23;;;5.50;99.90;;;;;;5068202;28;20206;-58
2022/05/01 02:24:25;;;;;;;64.37;17.03;;;5.50;99.90;;;;;;5069961;28;20288;-58
2022/05/01 02:26:51;;;;;;;41.77;15.60;;;5.50;99.90;;;;;;5068004;28;20254;-58
2022/05/01 02:29:17;;;;;;;71.63;19.03;;;5.50;99.90;;;;;;5067161;28;20531;-58
2022/05/01 02:31:44;;;;;;;70.23;16.63;;;5.50;99.90;;;;;;5066466;28;20493;-58
2022/05/01 02:34:11;;;;;;;30.73;17.03;;;5.50;99.90;;;;;;5069861;28;20437;-58
2022/05/01 02:36:37;;;;;;;47.00;16.43;;;5.50;99.90;;;;;;5068484;28;20448;-58
2022/05/01 02:39:05;;;;;;;31.23;15.27;;;5.50;99.90;;;;;;5069669;28;20459;-58
2022/05/01 02:41:31;;;;;;;34.43;14.90;;;5.50;99.90;;;;;;5055190;28;20513;-58
2022/05/01 02:43:57;;;;;;;46.90;16.07;;;5.50;99.90;;;;;;5069086;28;20447;-57
2022/05/01 02:46:25;;;;;;;34.27;15.53;;;5.50;99.90;;;;;;5068907;28;20750;-57
2022/05/01 02:48:51;;;;;;;56.10;15.90;;;5.40;99.90;;;;;;5072828;28;20805;-58
2022/05/01 02:51:17;;;;;;;32.40;14.87;;;5.40;99.90;;;;;;5069786;28;20425;-59
2022/05/01 02:53:43;;;;;;;47.40;16.77;;;5.40;99.90;;;;;;5070273;28;20455;-58
2022/05/01 02:56:09;;;;;;;44.20;14.60;;;5.40;99.90;;;;;;5076065;28;20487;-57
2022/05/01 02:58:35;;;;;;;37.00;13.97;;;5.30;99.90;;;;;;5067578;28;20285;-58
2022/05/01 03:01:01;;;;;;;46.13;14.60;;;5.30;99.90;;;;;;5066836;28;20451;-58
2022/05/01 03:03:27;;;;;;;244.23;21.93;;;5.30;99.90;;;;;;5085182;28;20484;-58
2022/05/01 03:05:54;;;;;;;299.07;20.93;;;5.30;99.90;;;;;;5068842;28;20183;-58
2022/05/01 03:08:21;;;;;;;121.83;17.17;;;5.20;99.90;;;;;;5082558;28;20447;-57
2022/05/01 03:10:48;;;;;;;158.37;17.77;;;5.10;99.90;;;;;;5071769;28;20741;-58
2022/05/01 03:13:13;;;;;;;137.73;16.17;;;5.00;99.90;;;;;;5066865;28;20453;-57
2022/05/01 03:15:40;;;;;;;94.97;17.20;;;5.00;99.90;;;;;;5070210;28;20618;-58
2022/05/01 03:23:34;;;;;;;175.93;18.47;;;4.90;99.90;;;;;;5061356;28;20475;-57
2022/05/01 03:26:00;;;;;;;55.53;14.20;;;4.90;99.90;;;;;;5057348;28;21083;-57
2022/05/01 03:28:26;;;;;;;148.70;17.40;;;4.90;99.90;;;;;;5068480;28;20178;-57
2022/05/01 03:30:53;;;;;;;132.37;16.30;;;4.80;99.90;;;;;;5073603;28;20174;-57
2022/05/01 03:33:22;;;;;;;67.87;13.47;;;4.80;99.90;;;;;;5070564;28;20543;-57
2022/05/01 03:35:48;;;;;;;50.40;13.80;;;4.80;99.90;;;;;;5057625;28;20515;-57
2022/05/01 03:38:15;;;;;;;37.17;14.70;;;4.80;99.90;;;;;;5073743;28;20427;-58
2022/05/01 03:40:42;;;;;;;62.73;14.53;;;4.70;99.90;;;;;;5068205;28;20455;-57
2022/05/01 03:43:07;;;;;;;115.03;14.37;;;4.70;99.90;;;;;;5066680;28;21125;-58
2022/05/01 03:45:33;;;;;;;28.27;13.53;;;4.70;99.90;;;;;;5058971;28;20436;-58
2022/05/01 03:47:59;;;;;;;89.27;14.20;;;4.70;99.90;;;;;;5060586;28;20175;-57
2022/05/01 03:50:24;;;;;;;58.77;14.27;;;4.70;99.90;;;;;;5080174;28;20194;-57
2022/05/01 03:52:51;;;;;;;121.03;16.43;;;4.70;99.90;;;;;;5064725;28;20214;-57
2022/05/01 03:55:16;;;;;;;30.40;14.20;;;4.70;99.90;;;;;;5074316;28;20185;-57
2022/05/01 03:57:42;;;;;;;51.90;14.27;;;4.80;99.90;;;;;;5066039;28;20432;-58
2022/05/01 04:00:18;;;;;;;77.10;14.73;;;4.80;99.90;;;;;;5060835;28;20195;-57
2022/05/01 04:02:44;;;;;;;31.43;12.57;;;4.80;99.90;;;;;;5064273;28;20205;-57
2022/05/01 04:05:12;;;;;;;31.93;14.20;;;4.80;99.90;;;;;;5061794;28;20458;-57
2022/05/01 04:07:41;;;;;;;38.20;13.83;;;4.80;99.90;;;;;;5067612;28;20442;-57
2022/05/01 04:10:08;;;;;;;51.13;13.50;;;4.80;99.90;;;;;;5067331;28;20984;-57
2022/05/01 04:12:41;;;;;;;75.63;14.30;;;4.70;99.90;;;;;;5084973;22;20605;-60
2022/05/01 04:15:07;;;;;;;103.10;14.77;;;4.70;99.90;;;;;;5076343;28;20435;-60
2022/05/01 04:17:38;;;;;;;23.67;12.27;;;4.60;99.90;;;;;;5087397;28;20446;-60
2022/05/01 04:20:15;;;;;;;52.30;12.17;;;4.60;99.90;;;;;;5091738;28;20896;-60
2022/05/01 04:22:41;;;;;;;43.00;13.87;;;4.60;99.90;;;;;;5086952;28;20555;-59
2022/05/01 04:25:24;;;;;;;21.37;11.87;;;4.60;99.90;;;;;;5063038;28;20805;-59
2022/05/01 04:27:52;;;;;;;29.63;12.27;;;4.60;99.90;;;;;;5056003;28;20174;-59
2022/05/01 04:30:19;;;;;;;21.10;11.10;;;4.60;99.90;;;;;;5065047;28;20770;-59
2022/05/01 04:32:50;;;;;;;84.40;16.10;;;4.70;99.90;;;;;;5063153;28;20458;-59
2022/05/01 04:35:28;;;;;;;37.93;15.00;;;4.60;99.90;;;;;;5064930;28;20444;-60
2022/05/01 04:37:59;;;;;;;36.53;12.67;;;4.60;99.90;;;;;;5064018;28;20412;-60
2022/05/01 04:40:29;;;;;;;34.17;11.37;;;4.50;99.90;;;;;;5062826;28;20461;-60
2022/05/01 04:43:25;;;;;;;23.73;11.40;;;4.50;99.90;;;;;;5064344;28;20440;-60
2022/05/01 04:45:53;;;;;;;25.60;10.90;;;4.50;99.90;;;;;;5065183;28;20829;-60
2022/05/01 04:48:20;;;;;;;23.63;11.50;;;4.40;99.90;;;;;;5061984;28;20422;-61
2022/05/01 04:50:47;;;;;;;21.20;10.40;;;4.40;99.90;;;;;;5062232;28;20508;-60
2022/05/01 04:53:14;;;;;;;49.70;11.13;;;4.40;99.90;;;;;;5060043;28;20539;-59
2022/05/01 04:55:42;;;;;;;40.47;12.20;;;4.40;99.90;;;;;;5061537;28;20852;-59
2022/05/01 04:58:10;;;;;;;31.03;11.03;;;4.40;99.90;;;;;;5079516;28;20429;-60
2022/05/01 05:00:36;;;;;;;51.43;12.07;;;4.40;99.90;;;;;;5060972;28;20461;-60
2022/05/01 05:03:03;;;;;;;24.17;11.60;;;4.40;99.90;;;;;;5062213;28;20448;-59
2022/05/01 05:05:31;;;;;;;23.30;10.90;;;4.30;99.90;;;;;;5061491;28;20417;-60
2022/05/01 05:09:53;;;;;;;35.97;11.00;;;4.30;99.90;;;;;;5061344;28;20430;-59
2022/05/01 05:10:46;;;;;;;21.83;11.60;;;4.40;99.90;;;;;;5064251;28;20441;-61
2022/05/01 05:13:15;;;;;;;20.20;11.80;;;4.40;99.90;;;;;;5063143;28;20506;-59
2022/05/01 05:15:41;;;;;;;19.67;10.53;;;4.40;99.90;;;;;;5060259;28;20432;-60
2022/05/01 05:18:07;;;;;;;21.10;10.63;;;4.40;99.90;;;;;;5058401;28;20420;-60
2022/05/01 05:20:33;;;;;;;20.30;11.10;;;4.40;99.90;;;;;;5061806;28;20461;-60
2022/05/01 05:22:58;;;;;;;16.67;9.53;;;4.50;99.90;;;;;;5060730;28;20193;-60
2022/05/01 05:25:24;;;;;;;25.10;11.13;;;4.50;99.90;;;;;;5060820;28;20274;-60
2022/05/01 05:27:49;;;;;;;19.57;10.83;;;4.60;99.90;;;;;;5060889;28;20266;-60
2022/05/01 05:30:15;;;;;;;25.07;11.20;;;4.60;99.90;;;;;;5081626;28;20193;-60
2022/05/01 05:32:41;;;;;;;20.10;11.30;;;4.60;99.90;;;;;;5066393;28;20210;-60
2022/05/01 05:35:07;;;;;;;29.33;12.03;;;4.60;99.90;;;;;;5065588;28;20173;-60
2022/05/01 05:37:33;;;;;;;33.20;11.90;;;4.70;99.90;;;;;;5062054;28;20186;-60
2022/05/01 05:39:58;;;;;;;23.30;12.10;;;4.70;99.90;;;;;;5061150;28;20453;-60
2022/05/01 05:42:24;;;;;;;53.23;12.07;;;4.70;99.90;;;;;;5065999;28;20174;-60
2022/05/01 05:44:50;;;;;;;24.40;11.97;;;4.80;99.90;;;;;;5050965;28;20656;-60
2022/05/01 05:47:16;;;;;;;24.33;11.40;;;4.80;99.90;;;;;;5060190;28;20212;-60
2022/05/01 05:49:42;;;;;;;19.63;11.03;;;4.80;99.90;;;;;;5061423;28;20440;-60
2022/05/01 05:52:08;;;;;;;18.80;10.93;;;4.80;99.90;;;;;;5064975;28;20189;-60
2022/05/01 05:54:33;;;;;;;19.00;11.10;;;4.80;99.90;;;;;;5063755;28;20205;-59
2022/05/01 05:56:59;;;;;;;23.00;10.57;;;4.80;99.90;;;;;;5058186;28;20185;-60
2022/05/01 05:59:25;;;;;;;20.47;10.90;;;4.80;99.90;;;;;;5061528;28;20314;-60
2022/05/01 06:01:50;;;;;;;16.90;10.87;;;4.80;99.90;;;;;;5062640;28;20179;-60
2022/05/01 06:04:16;;;;;;;24.33;10.67;;;4.80;99.90;;;;;;5064286;28;20222;-60
2022/05/01 06:06:42;;;;;;;28.80;11.00;;;4.80;99.90;;;;;;5059841;28;20200;-60
2022/05/01 06:09:08;;;;;;;25.30;11.73;;;4.80;99.90;;;;;;5061627;28;20379;-60
2022/05/01 06:11:35;;;;;;;17.53;10.47;;;4.80;99.90;;;;;;5060042;28;20178;-60
2022/05/01 06:14:04;;;;;;;28.17;11.10;;;4.80;99.90;;;;;;5061256;28;20479;-60
2022/05/01 06:16:31;;;;;;;18.83;9.87;;;4.80;99.90;;;;;;5061976;28;20432;-60
2022/05/01 06:18:59;;;;;;;15.33;9.33;;;4.80;99.90;;;;;;5060358;28;20425;-60
2022/05/01 06:21:25;;;;;;;20.07;10.63;;;4.90;99.90;;;;;;5057699;28;20429;-60
2022/05/01 06:23:50;;;;;;;20.93;9.87;;;4.90;99.90;;;;;;5078356;28;20919;-59
2022/05/01 06:26:16;;;;;;;24.20;10.23;;;4.90;99.90;;;;;;5068096;28;20421;-60
2022/05/01 06:28:42;;;;;;;22.87;10.93;;;4.90;99.90;;;;;;5062752;28;20174;-60
2022/05/01 06:31:07;;;;;;;15.73;9.07;;;4.90;99.90;;;;;;5062035;28;20194;-59
2022/05/01 06:33:35;;;;;;;14.20;9.53;;;5.00;99.90;;;;;;5060923;28;20565;-60
2022/05/01 06:36:01;;;;;;;21.10;10.27;;;5.00;99.90;;;;;;5054026;28;20261;-60
2022/05/01 06:38:28;;;;;;;23.40;10.30;;;5.10;99.90;;;;;;5062067;28;21159;-60
2022/05/01 06:40:54;;;;;;;16.70;10.93;;;5.10;99.90;;;;;;5062485;28;20460;-60
2022/05/01 06:43:20;;;;;;;16.20;9.27;;;5.20;99.90;;;;;;5059888;28;20486;-60
2022/05/01 06:45:46;;;;;;;16.50;10.37;;;5.20;99.90;;;;;;5065044;28;20225;-60
2022/05/01 06:48:12;;;;;;;13.27;8.77;;;5.30;99.90;;;;;;5057201;28;20213;-61
2022/05/01 06:50:38;;;;;;;15.93;9.50;;;5.40;99.90;;;;;;5061823;28;20465;-60
2022/05/01 06:53:05;;;;;;;15.10;9.43;;;5.50;99.90;;;;;;5059429;28;20564;-60
2022/05/01 06:55:31;;;;;;;15.47;9.13;;;5.60;99.90;;;;;;5067068;28;20206;-62
2022/05/01 06:57:57;;;;;;;13.73;9.10;;;5.70;99.90;;;;;;5054294;28;21217;-60
2022/05/01 07:00:23;;;;;;;17.30;10.87;;;5.80;99.90;;;;;;5055771;28;20486;-59
2022/05/01 07:02:50;;;;;;;14.77;9.60;;;5.90;99.90;;;;;;5057213;28;20195;-60
2022/05/01 07:05:20;;;;;;;14.00;9.10;;;6.00;99.90;;;;;;5057721;28;20472;-59
2022/05/01 07:07:46;;;;;;;14.70;9.70;;;6.20;99.90;;;;;;5061329;28;21161;-59
2022/05/01 07:10:12;;;;;;;13.30;9.03;;;6.30;99.90;;;;;;5058352;28;20537;-60
2022/05/01 07:12:38;;;;;;;16.47;10.30;;;6.50;99.90;;;;;;5062228;28;20424;-61
2022/05/01 07:15:05;;;;;;;15.90;9.83;;;6.60;99.90;;;;;;5058367;28;20436;-61
2022/05/01 07:17:32;;;;;;;16.53;10.03;;;6.80;99.90;;;;;;5059370;28;20541;-62
2022/05/01 07:19:58;;;;;;;16.40;11.00;;;7.00;99.90;;;;;;5063825;28;21107;-61
2022/05/01 07:22:24;;;;;;;16.40;10.10;;;7.20;99.90;;;;;;5060438;28;21142;-61
2022/05/01 07:24:50;;;;;;;18.03;11.27;;;7.40;99.90;;;;;;5060852;28;20466;-61
2022/05/01 07:27:15;;;;;;;17.43;11.60;;;7.50;99.90;;;;;;5061799;28;20436;-61
2022/05/01 07:29:41;;;;;;;19.10;11.43;;;7.70;99.90;;;;;;5060760;28;20676;-61
2022/05/01 07:32:07;;;;;;;19.53;11.00;;;7.70;99.90;;;;;;5058130;28;20185;-60
2022/05/01 07:34:33;;;;;;;17.63;11.60;;;7.90;99.90;;;;;;5061319;28;20318;-62
2022/05/01 07:36:59;;;;;;;17.33;11.67;;;8.00;99.90;;;;;;5061348;28;20431;-59
2022/05/01 07:39:24;;;;;;;17.43;11.07;;;8.20;99.90;;;;;;5057219;28;20456;-61
2022/05/01 07:41:50;;;;;;;16.63;11.20;;;8.40;99.90;;;;;;5055242;28;20667;-57
2022/05/01 07:44:16;;;;;;;18.87;12.10;;;8.70;99.90;;;;;;5058469;28;20194;-58
2022/05/01 07:46:41;;;;;;;16.50;11.00;;;8.80;99.90;;;;;;5055681;28;20210;-61
2022/05/01 07:49:08;;;;;;;15.60;10.70;;;8.90;99.90;;;;;;5062450;28;20227;-60
2022/05/01 07:51:34;;;;;;;15.13;11.10;;;9.00;99.90;;;;;;5061755;28;20180;-60
2022/05/01 07:54:01;;;;;;;19.90;12.17;;;9.20;99.90;;;;;;5069553;28;20531;-60
2022/05/01 07:56:27;;;;;;;18.33;11.43;;;9.40;99.90;;;;;;5071501;28;20493;-61
2022/05/01 07:58:53;;;;;;;18.80;12.10;;;9.60;99.90;;;;;;5076525;28;20430;-60
2022/05/01 08:01:19;;;;;;;19.90;12.77;;;9.70;99.90;;;;;;5059725;28;21024;-60
2022/05/01 08:06:29;;;;;;;15.30;11.00;;;10.00;99.90;;;;;;5068052;28;20229;-61
2022/05/01 08:08:55;;;;;;;23.60;12.80;;;10.20;99.90;;;;;;5062864;28;20424;-60
2022/05/01 08:11:21;;;;;;;16.87;12.40;;;10.40;99.90;;;;;;5063557;28;20429;-61
2022/05/01 08:13:46;;;;;;;22.27;12.77;;;10.50;98.30;;;;;;5082441;28;20210;-61
2022/05/01 08:16:12;;;;;;;20.80;12.10;;;10.50;96.30;;;;;;5062678;28;20428;-60
2022/05/01 08:21:22;;;;;;;20.30;12.43;;;10.60;96.30;;;;;;5073486;28;20720;-61
2022/05/01 08:23:48;;;;;;;16.93;11.13;;;10.60;93.20;;;;;;5072036;28;20476;-61
2022/05/01 08:26:17;;;;;;;17.60;11.00;;;10.60;90.30;;;;;;5067974;28;20218;-61
2022/05/01 08:28:42;;;;;;;18.40;11.57;;;10.60;93.20;;;;;;5061223;28;20432;-61
2022/05/01 08:31:08;;;;;;;15.73;11.17;;;10.80;96.80;;;;;;5058702;28;20420;-60
2022/05/01 08:33:35;;;;;;;21.20;11.03;;;11.10;95.00;;;;;;5072065;28;20787;-61
2022/05/01 08:36:03;;;;;;;15.60;11.07;;;11.30;92.80;;;;;;5060184;28;20933;-60
2022/05/01 08:38:29;;;;;;;16.80;10.50;;;11.50;86.90;;;;;;5066610;28;20443;-61
2022/05/01 08:40:56;;;;;;;17.90;10.63;;;11.60;87.30;;;;;;5064524;28;20582;-60
2022/05/01 08:43:23;;;;;;;16.27;10.80;;;11.60;85.00;;;;;;5068011;28;20445;-61
2022/05/01 08:46:11;;;;;;;16.60;10.80;;;11.60;86.60;;;;;;5047999;28;20935;-61
2022/05/01 08:48:59;;;;;;;16.80;10.17;;;11.80;87.60;;;;;;5059685;28;20872;-60
2022/05/01 08:51:31;;;;;;;16.47;10.13;;;12.10;84.00;;;;;;5062215;28;20453;-61
2022/05/01 08:53:58;;;;;;;16.73;10.77;;;12.40;81.10;;;;;;5060738;28;20511;-61
2022/05/01 08:56:25;;;;;;;16.23;10.30;;;12.60;79.00;;;;;;5062760;28;21039;-61
2022/05/01 08:58:51;;;;;;;13.53;9.40;;;12.90;74.60;;;;;;5063291;28;20433;-61
2022/05/01 09:01:17;;;;;;;13.30;9.07;;;13.10;73.10;;;;;;5062133;28;20440;-62
2022/05/01 09:03:46;;;;;;;17.40;10.00;;;13.20;69.10;;;;;;5064108;28;20505;-60
2022/05/01 09:06:12;;;;;;;17.80;9.40;;;13.20;66.10;;;;;;5060427;28;20827;-60
2022/05/01 09:08:39;;;;;;;17.17;8.93;;;13.10;64.80;;;;;;5066116;28;20926;-60
2022/05/01 09:13:50;;;;;;;14.97;9.03;;;12.70;60.80;;;;;;5060756;28;20839;-60
2022/05/01 09:16:16;;;;;;;12.10;8.57;;;12.60;61.80;;;;;;5062092;28;20440;-60
2022/05/01 09:18:46;;;;;;;11.63;8.60;;;12.50;62.00;;;;;;5067002;28;20193;-60
2022/05/01 09:21:13;;;;;;;14.30;8.30;;;12.50;63.10;;;;;;5059091;28;20266;-60
2022/05/01 09:23:41;;;;;;;13.50;9.33;;;12.80;65.80;;;;;;5060362;28;20451;-60
2022/05/01 09:26:09;;;;;;;12.40;9.40;;;13.10;64.40;;;;;;5071185;28;20444;-60
2022/05/01 09:28:50;;;;;;;15.30;8.83;;;13.40;64.00;;;;;;5057649;28;20440;-58
2022/05/01 09:31:17;;;;;;;10.60;8.00;;;13.80;63.30;;;;;;5056944;28;20442;-61
2022/05/01 09:33:43;;;;;;;16.70;7.77;;;14.10;61.80;;;;;;5058733;28;22129;-60
2022/05/01 09:36:28;;;;;;;11.30;8.40;;;14.30;59.30;;;;;;5061219;28;20933;-62
2022/05/01 09:39:05;;;;;;;10.70;7.80;;;14.20;57.60;;;;;;5057455;28;20174;-61
2022/05/01 09:41:30;;;;;;;10.20;7.73;;;14.00;57.00;;;;;;5059095;28;20421;-61
2022/05/01 09:43:56;;;;;;;15.77;8.23;;;13.70;57.50;;;;;;5060390;28;20471;-62
2022/05/01 09:46:23;;;;;;;17.90;9.77;;;13.50;58.30;;;;;;5062007;28;20210;-61
2022/05/01 09:49:10;;;;;;;11.20;8.40;;;13.40;58.80;;;;;;5065846;28;20186;-62
2022/05/01 09:51:47;;;;;;;12.53;8.73;;;13.20;59.20;;;;;;5063508;28;20471;-61
2022/05/01 09:54:27;;;;;;;11.10;8.70;;;13.10;59.60;;;;;;5061072;28;20535;-61
2022/05/01 09:56:58;;;;;;;13.13;7.97;;;12.90;59.50;;;;;;5073456;28;20944;-62
2022/05/01 09:59:26;;;;;;;14.43;8.77;;;12.80;59.90;;;;;;5057617;28;20467;-60
2022/05/01 10:02:04;;;;;;;12.97;8.07;;;12.70;60.20;;;;;;5063871;28;20541;-60
2022/05/01 10:04:32;;;;;;;10.40;8.50;;;12.70;60.40;;;;;;5057315;28;20460;-62
2022/05/01 10:06:58;;;;;;;11.17;8.80;;;12.60;62.20;;;;;;5057729;28;20440;-60
2022/05/01 10:09:34;;;;;;;12.83;8.60;;;12.60;63.50;;;;;;5061310;28;20491;-61
2022/05/01 10:12:05;;;;;;;12.50;9.20;;;12.60;65.10;;;;;;5059959;28;20444;-61
2022/05/01 10:14:30;;;;;;;11.10;8.70;;;12.70;63.90;;;;;;5050998;28;20468;-60
2022/05/01 10:16:57;;;;;;;13.80;8.80;;;12.70;63.40;;;;;;5059138;28;20505;-60
2022/05/01 10:19:24;;;;;;;12.80;8.97;;;12.70;63.00;;;;;;5058567;28;20206;-60
2022/05/01 10:21:52;;;;;;;14.13;8.20;;;12.70;62.50;;;;;;5066008;28;20425;-60
2022/05/01 10:24:19;;;;;;;12.50;8.30;;;12.70;62.20;;;;;;5053531;28;20516;-60
2022/05/01 10:27:10;;;;;;;11.80;8.60;;;12.80;61.50;;;;;;5056833;28;20444;-60
2022/05/01 10:33:13;;;;;;;9.80;7.40;;;13.00;60.60;;;;;;5055467;28;20485;-60
2022/05/01 10:35:57;;;;;;;11.57;8.23;;;13.10;60.10;;;;;;5042302;28;20441;-60
2022/05/01 10:38:27;;;;;;;11.03;8.70;;;13.20;59.40;;;;;;5065674;28;20458;-60
2022/05/01 10:40:58;;;;;;;15.17;7.97;;;13.30;58.80;;;;;;5063405;28;20471;-60
2022/05/01 10:43:27;;;;;;;8.70;7.23;;;13.40;58.90;;;;;;5059478;28;20842;-60
2022/05/01 10:46:00;;;;;;;10.70;7.83;;;13.50;58.40;;;;;;5067598;28;20439;-61
2022/05/01 10:48:35;;;;;;;10.63;8.03;;;13.60;58.40;;;;;;5060191;28;20429;-60
2022/05/01 10:51:30;;;;;;;11.60;8.10;;;13.80;58.20;;;;;;5062276;28;20472;-60
2022/05/01 10:54:19;;;;;;;10.70;6.80;;;14.10;58.00;;;;;;5061520;28;21141;-60
2022/05/01 10:56:46;;;;;;;8.97;7.00;;;14.20;56.40;;;;;;5050154;28;21128;-61
2022/05/01 10:59:29;;;;;;;8.70;6.20;;;14.20;57.10;;;;;;5064866;28;20447;-61
2022/05/01 11:02:00;;;;;;;10.20;7.97;;;14.10;57.00;;;;;;5057819;28;20414;-60
2022/05/01 11:04:42;;;;;;;10.30;7.67;;;14.00;56.60;;;;;;5065883;28;20889;-60
2022/05/01 11:07:13;;;;;;;8.90;7.10;;;13.80;56.80;;;;;;5062281;28;20468;-61
2022/05/01 11:09:41;;;;;;;9.03;7.40;;;13.70;57.00;;;;;;5067468;28;20531;-60
2022/05/01 11:12:08;;;;;;;10.73;8.00;;;13.50;57.10;;;;;;5068015;28;20425;-61
2022/05/01 11:14:53;;;;;;;9.40;7.50;;;13.40;56.60;;;;;;5059354;28;20479;-60
2022/05/01 11:17:36;;;;;;;8.73;6.73;;;13.20;56.60;;;;;;5049293;28;20810;-60
2022/05/01 11:20:10;;;;;;;9.00;7.10;;;13.10;57.00;;;;;;5054783;28;20491;-60
2022/05/01 11:22:36;;;;;;;9.90;8.00;;;13.10;57.70;;;;;;5056288;28;20430;-59
2022/05/01 11:25:03;;;;;;;10.50;7.00;;;13.20;56.70;;;;;;5057462;28;20790;-61
2022/05/01 11:27:52;;;;;;;9.03;6.47;;;13.20;57.40;;;;;;5066136;28;20934;-60
2022/05/01 11:30:27;;;;;;;7.90;6.60;;;13.40;57.40;;;;;;5065395;28;20433;-60
2022/05/01 11:33:11;;;;;;;14.33;7.53;;;13.50;57.40;;;;;;5057613;28;20467;-60
2022/05/01 11:36:04;;;;;;;9.50;7.17;;;13.60;58.00;;;;;;5065538;28;21030;-60
2022/05/01 11:38:33;;;;;;;9.97;7.13;;;13.60;55.30;;;;;;5070734;28;20470;-60
2022/05/01 11:41:03;;;;;;;8.80;7.43;;;13.70;55.30;;;;;;5061215;28;21103;-61
2022/05/01 11:43:30;;;;;;;11.40;8.20;;;13.90;55.90;;;;;;5058742;28;20541;-61
2022/05/01 11:45:57;;;;;;;11.47;6.80;;;14.10;53.70;;;;;;5068826;28;20780;-61
2022/05/01 11:48:23;;;;;;;10.73;6.37;;;14.40;55.70;;;;;;5066710;28;20905;-59
2022/05/01 11:50:53;;;;;;;8.53;7.00;;;14.70;56.50;;;;;;5061585;28;20438;-60
2022/05/01 11:53:24;;;;;;;8.40;7.10;;;15.00;56.00;;;;;;5064509;28;20198;-61
2022/05/01 12:04:35;;;;;;;9.53;7.03;;;14.90;54.20;;;;;;5064899;28;20540;-60
2022/05/01 12:07:17;;;;;;;9.07;6.40;;;14.70;53.10;;;;;;5062133;28;20404;-59
2022/05/01 12:09:46;;;;;;;9.00;7.30;;;14.90;54.20;;;;;;5060704;28;20440;-60
2022/05/01 12:12:13;;;;;;;9.03;6.27;;;15.40;54.60;;;;;;5062022;28;20506;-60
2022/05/01 12:14:40;;;;;;;9.87;6.57;;;15.70;53.80;;;;;;5057393;28;20550;-60
2022/05/01 12:17:24;;;;;;;8.80;6.77;;;16.10;54.30;;;;;;5064312;28;20439;-59
2022/05/01 12:19:54;;;;;;;10.03;6.47;;;16.10;52.10;;;;;;5059707;28;20449;-61
2022/05/01 12:22:21;;;;;;;8.07;6.40;;;16.00;53.10;;;;;;5068428;28;20493;-60
2022/05/01 12:24:48;;;;;;;7.27;6.13;;;16.20;54.70;;;;;;5061561;28;20438;-61
2022/05/01 12:27:20;;;;;;;8.90;6.60;;;16.40;54.20;;;;;;5067345;28;20440;-59
2022/05/01 12:29:51;;;;;;;7.80;5.80;;;16.70;52.70;;;;;;5067617;28;20463;-59
2022/05/01 12:32:17;;;;;;;8.97;5.93;;;16.60;52.00;;;;;;5061843;28;20814;-60
2022/05/01 12:34:46;;;;;;;7.40;6.37;;;16.80;52.40;;;;;;5058508;28;20465;-59
2022/05/01 12:37:29;;;;;;;6.30;5.70;;;16.90;50.30;;;;;;5071186;28;20485;-59
2022/05/01 12:40:12;;;;;;;6.07;5.47;;;17.10;52.00;;;;;;5071360;28;20472;-60
2022/05/01 12:45:45;;;;;;;11.10;6.30;;;17.80;51.70;;;;;;5054099;28;20420;-60
2022/05/01 12:48:13;;;;;;;6.60;5.60;;;18.00;49.40;;;;;;5053056;28;20464;-60
2022/05/01 12:50:40;;;;;;;8.93;6.30;;;18.10;48.20;;;;;;5056282;28;20435;-61
2022/05/01 12:53:29;;;;;;;7.40;5.90;;;17.80;48.00;;;;;;5062756;28;20468;-61
2022/05/01 12:56:02;;;;;;;6.90;5.60;;;17.90;49.30;;;;;;5058337;28;20429;-61
2022/05/01 12:58:35;;;;;;;7.00;5.70;;;18.10;50.30;;;;;;5059292;28;20469;-61
2022/05/01 13:01:04;;;;;;;9.03;5.23;;;18.50;49.70;;;;;;5057006;28;20460;-61
2022/05/01 13:03:36;;;;;;;7.30;4.73;;;18.80;48.80;;;;;;5057669;28;20480;-60
2022/05/01 13:06:13;;;;;;;6.53;5.10;;;19.10;49.10;;;;;;5058146;28;20437;-60
2022/05/01 13:08:43;;;;;;;8.47;4.90;;;19.40;47.70;;;;;;5060532;28;20435;-60
2022/05/01 13:11:18;;;;;;;6.73;6.03;;;19.60;47.80;;;;;;5059056;28;20429;-60
2022/05/01 13:13:55;;;;;;;6.00;5.33;;;19.70;46.60;;;;;;5049370;28;20517;-61
2022/05/01 13:16:31;;;;;;;7.90;5.37;;;19.60;44.90;;;;;;5053528;28;21030;-60
2022/05/01 13:19:10;;;;;;;6.50;5.30;;;19.30;44.30;;;;;;5056473;28;20432;-60
2022/05/01 13:21:41;;;;;;;9.10;4.70;;;19.00;44.20;;;;;;5054043;28;21023;-60
2022/05/01 13:24:10;;;;;;;8.33;4.93;;;18.60;44.30;;;;;;5056881;28;20599;-61
2022/05/01 13:26:37;;;;;;;8.00;5.53;;;18.30;44.00;;;;;;5050894;28;20463;-60